Time;durP1;ratioP1;P1;durP2;ratioP2;P2;SDS_P1;SDS_P2;PMS_P1;PMS_P2;Temp;Humidity;BMP_temperature;BMP_pressure;BME280_temperature;BME280_humidity;BME280_pressure;Samples;Min_cycle;Max_cycle;Signal;HPM_P1;HPM_P2
2022/03/15 00:02:08;;;;;;;11.95;7.82;;;11.30;30.60;;;;;;5120947;28;20212;-66
2022/03/15 00:04:34;;;;;;;13.15;7.72;;;11.30;30.70;;;;;;5120896;28;20043;-67
2022/03/15 00:07:00;;;;;;;11.60;7.47;;;11.30;30.80;;;;;;5120930;28;20020;-67
2022/03/15 00:09:25;;;;;;;13.23;7.93;;;11.30;30.80;;;;;;5120905;28;20020;-67
2022/03/15 00:11:54;;;;;;;12.93;7.10;;;11.30;30.70;;;;;;5120853;28;20186;-67
2022/03/15 00:14:20;;;;;;;;;;;11.30;30.70;;;;;;5121526;28;20024;-66
2022/03/15 00:16:46;;;;;;;13.77;6.78;;;11.30;30.70;;;;;;5120793;28;19916;-67
2022/03/15 00:19:12;;;;;;;11.57;7.60;;;11.30;30.60;;;;;;5120807;28;20073;-66
2022/03/15 00:21:38;;;;;;;12.10;7.13;;;11.30;30.50;;;;;;5119478;28;20069;-68
2022/03/15 00:24:06;;;;;;;12.93;7.25;;;11.30;30.60;;;;;;5120654;28;20023;-68
2022/03/15 00:26:32;;;;;;;11.13;7.20;;;11.30;30.70;;;;;;5120747;28;20497;-67
2022/03/15 00:28:58;;;;;;;11.23;6.70;;;11.30;30.70;;;;;;5120657;28;20019;-66
2022/03/15 00:31:24;;;;;;;10.18;6.40;;;11.30;30.50;;;;;;5120596;28;20031;-67
2022/03/15 00:33:49;;;;;;;11.93;6.78;;;11.30;30.50;;;;;;5120392;28;20053;-68
2022/03/15 00:36:15;;;;;;;12.07;7.07;;;11.30;30.60;;;;;;5120552;28;20024;-66
2022/03/15 00:38:41;;;;;;;15.07;7.13;;;11.30;30.60;;;;;;5120601;28;20028;-67
2022/03/15 00:41:10;;;;;;;9.65;6.90;;;11.30;30.70;;;;;;5120553;28;20028;-67
2022/03/15 00:43:36;;;;;;;;;;;11.30;30.60;;;;;;5120751;28;20051;-67
2022/03/15 00:46:02;;;;;;;13.50;7.22;;;11.40;30.60;;;;;;5120406;28;19939;-66
2022/03/15 00:48:28;;;;;;;11.00;6.43;;;11.30;30.50;;;;;;5120331;28;20058;-67
2022/03/15 00:50:54;;;;;;;15.85;7.85;;;11.30;30.50;;;;;;5120400;28;20047;-66
2022/03/15 00:53:20;;;;;;;11.45;6.70;;;11.30;30.50;;;;;;5120432;28;20093;-67
2022/03/15 00:55:46;;;;;;;10.48;6.57;;;11.30;30.60;;;;;;5120449;28;20121;-67
2022/03/15 00:58:12;;;;;;;10.02;6.70;;;11.30;30.60;;;;;;5120307;28;20354;-67
2022/03/15 01:00:39;;;;;;;10.10;6.60;;;11.30;30.50;;;;;;5120394;28;20043;-67
2022/03/15 01:03:05;;;;;;;10.57;6.00;;;11.30;30.50;;;;;;5120284;28;20249;-67
2022/03/15 01:05:31;;;;;;;13.35;6.45;;;11.30;30.70;;;;;;5120388;28;20342;-68
2022/03/15 01:07:57;;;;;;;14.63;7.75;;;11.30;30.60;;;;;;5120304;28;20055;-66
2022/03/15 01:10:23;;;;;;;12.90;6.82;;;11.20;30.60;;;;;;5120205;28;20015;-67
2022/03/15 01:12:49;;;;;;;13.73;8.10;;;11.20;30.60;;;;;;5120191;28;20117;-67
2022/03/15 01:15:14;;;;;;;13.10;7.57;;;11.20;30.70;;;;;;5120253;28;20082;-66
2022/03/15 01:17:40;;;;;;;10.23;7.20;;;11.20;30.70;;;;;;5120265;28;20042;-67
2022/03/15 01:20:08;;;;;;;12.98;6.85;;;11.10;30.80;;;;;;5120157;28;20073;-66
2022/03/15 01:22:34;;;;;;;13.18;7.07;;;11.10;30.90;;;;;;5120209;28;20031;-66
2022/03/15 01:25:00;;;;;;;9.13;6.40;;;11.10;30.80;;;;;;5120110;28;20023;-69
2022/03/15 01:27:25;;;;;;;11.73;6.72;;;11.10;30.90;;;;;;5120157;28;20028;-66
2022/03/15 01:29:51;;;;;;;9.15;6.18;;;11.10;31.30;;;;;;5118876;28;20015;-67
2022/03/15 01:32:19;;;;;;;12.52;6.53;;;11.10;31.40;;;;;;5120142;28;20319;-67
2022/03/15 01:34:44;;;;;;;9.35;6.22;;;11.00;31.50;;;;;;5120131;28;20046;-67
2022/03/15 01:37:10;;;;;;;14.75;6.70;;;11.00;31.40;;;;;;5120059;28;20031;-67
2022/03/15 01:39:37;;;;;;;10.88;6.10;;;11.00;31.30;;;;;;5118739;28;20068;-66
2022/03/15 01:42:03;;;;;;;9.82;6.60;;;11.00;31.00;;;;;;5118743;28;20099;-67
2022/03/15 01:44:33;;;;;;;13.90;7.10;;;11.00;30.90;;;;;;5119825;28;20141;-67
2022/03/15 01:46:59;;;;;;;10.23;5.85;;;11.00;31.10;;;;;;5122946;28;20022;-67
2022/03/15 01:49:25;;;;;;;9.75;5.97;;;11.00;31.20;;;;;;5123708;28;20072;-68
2022/03/15 01:51:51;;;;;;;12.65;6.97;;;11.00;31.10;;;;;;5123640;28;20027;-67
2022/03/15 01:54:20;;;;;;;10.38;5.68;;;11.00;31.10;;;;;;5123638;28;20027;-66
2022/03/15 01:56:45;;;;;;;9.77;6.10;;;11.00;31.30;;;;;;5123595;28;20030;-67
2022/03/15 01:59:15;;;;;;;10.73;7.28;;;10.90;31.30;;;;;;5123540;28;20409;-68
2022/03/15 02:01:41;;;;;;;8.60;6.38;;;10.90;31.20;;;;;;5123505;28;20073;-67
2022/03/15 02:04:11;;;;;;;14.15;7.82;;;10.90;31.50;;;;;;5123330;28;20339;-67
2022/03/15 02:06:38;;;;;;;13.65;7.70;;;10.80;31.40;;;;;;5123394;28;20046;-65
2022/03/15 02:09:11;;;;;;;9.02;6.40;;;10.80;32.00;;;;;;5123340;28;20078;-66
2022/03/15 02:11:37;;;;;;;14.85;7.95;;;10.80;31.60;;;;;;5123363;28;20323;-66
2022/03/15 02:14:04;;;;;;;10.70;7.47;;;10.80;31.60;;;;;;5123225;28;20034;-67
2022/03/15 02:16:31;;;;;;;13.07;7.25;;;10.80;31.90;;;;;;5123235;28;20299;-66
2022/03/15 02:19:02;;;;;;;10.02;6.45;;;10.70;31.80;;;;;;5123198;28;20035;-67
2022/03/15 02:21:29;;;;;;;12.43;7.40;;;10.70;32.00;;;;;;5123226;28;20019;-66
2022/03/15 02:23:55;;;;;;;12.20;6.63;;;10.70;32.10;;;;;;5121715;28;20023;-66
2022/03/15 02:26:21;;;;;;;10.43;6.30;;;10.70;32.00;;;;;;5123015;28;20034;-66
2022/03/15 02:28:46;;;;;;;11.70;6.85;;;10.70;32.70;;;;;;5122997;28;20229;-67
2022/03/15 02:31:13;;;;;;;9.80;6.55;;;10.70;31.80;;;;;;5122903;28;20319;-66
2022/03/15 02:33:38;;;;;;;10.98;6.20;;;10.70;31.90;;;;;;5122822;28;20079;-66
2022/03/15 02:36:04;;;;;;;10.80;5.88;;;10.60;31.90;;;;;;5122890;28;20031;-66
2022/03/15 02:38:30;;;;;;;10.43;6.00;;;10.60;31.70;;;;;;5122800;28;20342;-66
2022/03/15 02:40:56;;;;;;;9.65;6.40;;;10.60;32.00;;;;;;5122719;28;20031;-66
2022/03/15 02:43:22;;;;;;;8.80;6.25;;;10.60;31.80;;;;;;5122515;28;20055;-67
2022/03/15 02:45:48;;;;;;;10.90;6.03;;;10.60;32.20;;;;;;5122547;28;20058;-68
2022/03/15 02:48:14;;;;;;;8.68;5.63;;;10.60;31.70;;;;;;5122608;28;20067;-66
2022/03/15 02:50:40;;;;;;;10.77;6.00;;;10.60;31.60;;;;;;5122565;28;20024;-66
2022/03/15 02:53:05;;;;;;;10.57;6.10;;;10.60;31.70;;;;;;5122523;28;20019;-66
2022/03/15 02:55:32;;;;;;;9.95;5.47;;;10.60;31.70;;;;;;5122158;28;20475;-66
2022/03/15 02:58:00;;;;;;;10.10;6.05;;;10.60;31.50;;;;;;5122373;28;20018;-67
2022/03/15 03:00:27;;;;;;;9.05;5.93;;;10.60;31.60;;;;;;5122368;28;20102;-68
2022/03/15 03:02:54;;;;;;;10.55;6.18;;;10.60;31.80;;;;;;5122267;28;20019;-67
2022/03/15 03:05:19;;;;;;;10.52;5.93;;;10.60;31.90;;;;;;5122242;28;20037;-67
2022/03/15 03:07:45;;;;;;;10.38;6.18;;;10.60;31.70;;;;;;5122236;28;20047;-66
2022/03/15 03:10:12;;;;;;;8.80;5.95;;;10.50;31.80;;;;;;5122175;28;20065;-67
2022/03/15 03:12:41;;;;;;;11.45;6.82;;;10.50;31.90;;;;;;5122143;28;20053;-67
2022/03/15 03:15:13;;;;;;;10.57;6.47;;;10.50;31.90;;;;;;5122028;28;20220;-68
2022/03/15 03:17:42;;;;;;;8.15;6.22;;;10.60;31.80;;;;;;5122121;28;20403;-67
2022/03/15 03:20:12;;;;;;;;;;;10.60;31.90;;;;;;5122416;28;20112;-66
2022/03/15 03:22:39;;;;;;;9.00;6.43;;;10.60;31.90;;;;;;5121966;28;20188;-67
2022/03/15 03:25:06;;;;;;;9.90;5.97;;;10.50;31.90;;;;;;5121752;28;20067;-66
2022/03/15 03:27:32;;;;;;;13.02;6.40;;;10.50;31.90;;;;;;5121907;27;20027;-66
2022/03/15 03:29:59;;;;;;;9.52;5.82;;;10.50;32.00;;;;;;5121847;28;20018;-67
2022/03/15 03:32:25;;;;;;;8.90;5.72;;;10.40;31.90;;;;;;5121741;28;20019;-66
2022/03/15 03:34:52;;;;;;;12.23;6.78;;;10.50;31.80;;;;;;5121730;28;20031;-66
2022/03/15 03:37:17;;;;;;;9.65;5.82;;;10.50;31.60;;;;;;5121685;28;20035;-66
2022/03/15 03:39:43;;;;;;;9.75;5.85;;;10.50;31.80;;;;;;5121626;28;20207;-67
2022/03/15 03:42:09;;;;;;;9.43;5.57;;;10.50;31.70;;;;;;5121581;28;20027;-66
2022/03/15 03:44:36;;;;;;;10.13;5.90;;;10.40;31.60;;;;;;5121352;28;20119;-67
2022/03/15 03:47:02;;;;;;;10.10;5.68;;;10.50;31.80;;;;;;5121570;28;20020;-67
2022/03/15 03:49:29;;;;;;;10.13;5.30;;;10.40;32.00;;;;;;5121446;28;20020;-65
2022/03/15 03:51:56;;;;;;;10.10;6.20;;;10.40;31.90;;;;;;5121405;28;20019;-66
2022/03/15 03:54:23;;;;;;;10.02;6.43;;;10.40;31.80;;;;;;5121395;28;20072;-66
2022/03/15 03:56:49;;;;;;;9.18;5.90;;;10.40;32.00;;;;;;5121315;28;20415;-66
2022/03/15 03:59:14;;;;;;;10.57;6.32;;;10.40;32.00;;;;;;5121280;28;20042;-66
2022/03/15 04:01:40;;;;;;;8.48;5.78;;;10.30;31.80;;;;;;5121276;28;20323;-67
2022/03/15 04:04:06;;;;;;;9.77;6.15;;;10.30;32.10;;;;;;5121209;28;20027;-66
2022/03/15 04:06:32;;;;;;;7.47;5.60;;;10.30;32.10;;;;;;5121187;28;20028;-67
2022/03/15 04:08:59;;;;;;;11.20;5.82;;;10.30;32.20;;;;;;5120696;28;20011;-66
2022/03/15 04:11:26;;;;;;;9.35;5.55;;;10.30;32.20;;;;;;5119847;28;20257;-66
2022/03/15 04:13:51;;;;;;;10.65;5.88;;;10.20;32.20;;;;;;5121063;28;20084;-67
2022/03/15 04:16:17;;;;;;;11.23;5.30;;;10.20;32.90;;;;;;5121020;28;20027;-66
2022/03/15 04:18:43;;;;;;;11.25;6.65;;;10.20;32.20;;;;;;5121029;28;20019;-67
2022/03/15 04:21:09;;;;;;;7.55;5.32;;;10.20;32.20;;;;;;5120910;28;20380;-65
2022/03/15 04:23:35;;;;;;;7.75;5.38;;;10.20;32.30;;;;;;5120898;28;20319;-68
2022/03/15 04:26:01;;;;;;;9.88;5.88;;;10.20;32.50;;;;;;5120944;28;20082;-65
2022/03/15 04:28:26;;;;;;;11.43;6.25;;;10.20;32.10;;;;;;5120822;28;20025;-67
2022/03/15 04:30:52;;;;;;;9.23;5.43;;;10.20;32.30;;;;;;5120900;28;20097;-66
2022/03/15 04:33:18;;;;;;;11.27;5.05;;;10.10;32.30;;;;;;5120815;28;20023;-67
2022/03/15 04:35:43;;;;;;;10.93;5.63;;;10.20;32.90;;;;;;5120815;28;20438;-67
2022/03/15 04:38:09;;;;;;;8.40;5.32;;;10.10;32.40;;;;;;5120752;28;20324;-67
2022/03/15 04:40:35;;;;;;;8.27;5.50;;;10.20;32.10;;;;;;5120715;28;20360;-68
2022/03/15 04:43:01;;;;;;;11.18;5.35;;;10.10;32.20;;;;;;5120421;28;20339;-65
2022/03/15 04:45:28;;;;;;;8.82;5.20;;;10.20;32.00;;;;;;5120741;28;20020;-67
2022/03/15 04:47:53;;;;;;;11.80;6.20;;;10.20;32.00;;;;;;5120664;28;20060;-66
2022/03/15 04:50:19;;;;;;;9.05;5.10;;;10.10;32.00;;;;;;5120635;28;20312;-66
2022/03/15 04:52:45;;;;;;;9.77;5.50;;;10.20;31.90;;;;;;5119278;28;20061;-66
2022/03/15 04:55:11;;;;;;;9.70;5.32;;;10.10;31.60;;;;;;5120555;28;20028;-66
2022/03/15 04:57:37;;;;;;;9.30;5.38;;;10.10;31.60;;;;;;5120621;28;20031;-66
2022/03/15 05:00:09;;;;;;;8.77;5.22;;;10.10;31.70;;;;;;5120621;28;20015;-67
2022/03/15 05:02:41;;;;;;;10.07;5.45;;;10.10;31.80;;;;;;5120565;28;20028;-65
2022/03/15 05:05:08;;;;;;;8.73;5.50;;;10.10;31.70;;;;;;5120546;28;20065;-67
2022/03/15 05:07:34;;;;;;;8.82;5.68;;;10.10;31.60;;;;;;5120398;28;20092;-68
2022/03/15 05:12:45;;;;;;;21.30;9.27;;;10.10;31.60;;;;;;5120462;28;20200;-68
2022/03/15 05:15:11;;;;;;;29.02;13.50;;;10.10;31.60;;;;;;5119097;28;20027;-66
2022/03/15 05:17:37;;;;;;;29.23;14.30;;;10.10;31.80;;;;;;5120368;28;20061;-66
2022/03/15 05:20:07;;;;;;;33.42;13.80;;;10.10;31.80;;;;;;5120355;28;20030;-67
2022/03/15 05:22:32;;;;;;;27.98;12.88;;;10.10;32.10;;;;;;5124331;28;20042;-67
2022/03/15 05:24:59;;;;;;;19.33;10.13;;;10.00;32.40;;;;;;5124138;28;20023;-67
2022/03/15 05:27:25;;;;;;;18.30;9.82;;;10.00;32.40;;;;;;5124293;28;20239;-66
2022/03/15 05:29:54;;;;;;;17.52;9.60;;;10.00;32.30;;;;;;5124230;28;20023;-67
2022/03/15 05:32:20;;;;;;;17.73;8.90;;;10.00;32.20;;;;;;5124072;28;20291;-67
2022/03/15 05:34:46;;;;;;;14.20;8.13;;;10.00;32.30;;;;;;5124122;28;20035;-67
2022/03/15 05:37:12;;;;;;;14.13;7.75;;;10.10;32.10;;;;;;5124039;28;20294;-66
2022/03/15 05:39:37;;;;;;;19.42;9.13;;;10.00;32.20;;;;;;5123962;28;20042;-67
2022/03/15 05:42:03;;;;;;;13.35;7.60;;;10.10;32.00;;;;;;5124017;28;20023;-67
2022/03/15 05:44:29;;;;;;;17.92;8.75;;;10.10;32.10;;;;;;5123679;28;20055;-66
2022/03/15 05:46:55;;;;;;;14.20;8.18;;;10.10;32.20;;;;;;5123865;28;20040;-67
2022/03/15 05:49:21;;;;;;;12.80;8.20;;;10.10;32.10;;;;;;5123836;28;20019;-66
2022/03/15 05:51:47;;;;;;;17.10;7.50;;;10.10;32.30;;;;;;5123828;27;20089;-66
2022/03/15 05:54:12;;;;;;;16.17;8.38;;;10.10;32.40;;;;;;5123717;28;20030;-67
2022/03/15 05:56:41;;;;;;;14.50;7.78;;;10.10;32.50;;;;;;5123621;28;20019;-66
2022/03/15 05:59:08;;;;;;;;;;;10.10;32.40;;;;;;5124129;28;20031;-67
2022/03/15 06:01:33;;;;;;;17.35;8.85;;;10.10;32.20;;;;;;5123657;28;19942;-66
2022/03/15 06:03:59;;;;;;;18.52;8.65;;;10.10;32.30;;;;;;5122268;28;20034;-66
2022/03/15 06:06:25;;;;;;;14.85;9.43;;;10.20;32.60;;;;;;5123516;28;20011;-66
2022/03/15 06:08:51;;;;;;;17.88;10.02;;;10.20;32.60;;;;;;5123461;28;20020;-67
2022/03/15 06:11:19;;;;;;;15.23;9.02;;;10.20;32.60;;;;;;5123437;28;20331;-67
2022/03/15 06:13:45;;;;;;;15.57;9.25;;;10.20;32.80;;;;;;5123390;28;20035;-66
2022/03/15 06:16:11;;;;;;;15.10;9.60;;;10.20;32.60;;;;;;5123337;27;20095;-66
2022/03/15 06:18:37;;;;;;;16.98;9.13;;;10.20;32.50;;;;;;5123242;28;20216;-67
2022/03/15 06:21:03;;;;;;;15.02;9.00;;;10.20;32.50;;;;;;5123129;28;20019;-67
2022/03/15 06:23:29;;;;;;;17.70;10.30;;;10.20;32.50;;;;;;5123115;28;20608;-67
2022/03/15 06:25:55;;;;;;;16.50;9.85;;;10.30;32.60;;;;;;5121885;28;20019;-66
2022/03/15 06:28:21;;;;;;;20.27;10.52;;;10.30;32.40;;;;;;5123080;28;20023;-66
2022/03/15 06:30:47;;;;;;;18.25;10.40;;;10.30;32.50;;;;;;5122991;27;20020;-67
2022/03/15 06:33:13;;;;;;;17.15;10.25;;;10.30;32.50;;;;;;5122512;28;20207;-66
2022/03/15 06:35:39;;;;;;;17.40;9.82;;;10.30;32.50;;;;;;5122845;28;20517;-66
2022/03/15 06:38:04;;;;;;;21.80;10.70;;;10.40;32.60;;;;;;5122888;28;20024;-68
2022/03/15 06:40:33;;;;;;;16.25;9.98;;;10.40;32.50;;;;;;5122793;28;20042;-66
2022/03/15 06:42:59;;;;;;;;;;;10.40;32.50;;;;;;5122984;27;20392;-67
2022/03/15 06:45:25;;;;;;;21.30;10.43;;;10.40;32.40;;;;;;5121470;28;19920;-66
2022/03/15 06:47:51;;;;;;;16.10;10.05;;;10.50;32.60;;;;;;5122675;28;20024;-66
2022/03/15 06:50:17;;;;;;;17.30;10.68;;;10.50;32.60;;;;;;5122802;28;20024;-66
2022/03/15 06:52:44;;;;;;;17.23;10.48;;;10.60;32.60;;;;;;5122470;28;20019;-66
2022/03/15 06:55:11;;;;;;;17.73;10.48;;;10.60;32.60;;;;;;5122452;28;20060;-67
2022/03/15 06:57:37;;;;;;;17.65;10.43;;;10.60;32.60;;;;;;5122387;28;20099;-68
2022/03/15 07:00:13;;;;;;;23.23;11.02;;;10.60;32.60;;;;;;5122408;28;20308;-67
2022/03/15 07:02:39;;;;;;;19.80;10.75;;;10.60;32.60;;;;;;5122256;28;20015;-67
2022/03/15 07:05:06;;;;;;;19.27;10.50;;;10.70;32.60;;;;;;5122131;28;20035;-67
2022/03/15 07:07:31;;;;;;;16.48;10.40;;;10.70;32.60;;;;;;5122188;28;20020;-65
2022/03/15 07:09:57;;;;;;;19.25;10.18;;;10.80;32.60;;;;;;5120815;28;20357;-66
2022/03/15 07:12:27;;;;;;;16.65;10.05;;;10.80;32.50;;;;;;5122056;28;20019;-67
2022/03/15 07:14:52;;;;;;;19.70;10.75;;;10.90;32.60;;;;;;5122069;28;20028;-67
2022/03/15 07:17:19;;;;;;;17.38;10.18;;;10.90;32.60;;;;;;5121957;28;20178;-66
2022/03/15 07:19:45;;;;;;;19.65;10.75;;;11.00;32.70;;;;;;5121937;28;20034;-67
2022/03/15 07:22:10;;;;;;;17.65;10.68;;;11.00;32.70;;;;;;5121846;28;20103;-67
2022/03/15 07:24:36;;;;;;;19.33;10.43;;;11.10;32.80;;;;;;5121727;28;20032;-66
2022/03/15 07:27:03;;;;;;;15.52;10.88;;;11.10;32.80;;;;;;5121693;28;20019;-67
2022/03/15 07:29:29;;;;;;;15.77;10.57;;;11.10;32.70;;;;;;5121754;28;20589;-67
2022/03/15 07:31:55;;;;;;;17.25;10.52;;;11.10;32.60;;;;;;5121651;28;20027;-66
2022/03/15 07:34:21;;;;;;;19.05;11.20;;;11.20;32.60;;;;;;5121713;28;20024;-66
2022/03/15 07:36:47;;;;;;;17.77;11.00;;;11.20;32.70;;;;;;5121708;28;20331;-67
2022/03/15 07:39:13;;;;;;;18.00;10.13;;;11.20;32.50;;;;;;5121535;28;20030;-66
2022/03/15 07:41:40;;;;;;;18.08;10.43;;;11.30;32.50;;;;;;5120217;28;20019;-67
2022/03/15 07:44:09;;;;;;;19.83;10.85;;;11.40;32.40;;;;;;5120479;28;20040;-66
2022/03/15 07:46:36;;;;;;;17.73;9.90;;;11.40;32.30;;;;;;5121501;27;20674;-68
2022/03/15 07:49:02;;;;;;;16.85;10.85;;;11.50;32.30;;;;;;5120091;28;20028;-66
2022/03/15 07:51:28;;;;;;;17.75;10.38;;;11.50;32.20;;;;;;5121310;28;20448;-67
2022/03/15 07:53:55;;;;;;;15.52;9.23;;;11.50;32.10;;;;;;5120053;28;20281;-67
2022/03/15 07:56:21;;;;;;;17.58;9.32;;;11.60;32.00;;;;;;5119958;28;20137;-67
2022/03/15 07:58:47;;;;;;;15.57;9.65;;;11.70;32.00;;;;;;5121251;28;20028;-67
2022/03/15 08:01:12;;;;;;;20.85;10.68;;;11.70;31.90;;;;;;5121117;28;20074;-67
2022/03/15 08:03:38;;;;;;;17.15;10.10;;;11.70;31.80;;;;;;5121085;28;20368;-67
2022/03/15 08:06:04;;;;;;;23.02;10.27;;;11.80;31.80;;;;;;5121164;28;20034;-66
2022/03/15 08:08:30;;;;;;;16.85;9.85;;;11.80;31.80;;;;;;5121065;28;20054;-67
2022/03/15 08:10:56;;;;;;;15.88;9.85;;;11.80;31.70;;;;;;5119715;28;20349;-66
2022/03/15 08:13:22;;;;;;;15.75;8.80;;;11.90;31.70;;;;;;5121063;28;20319;-67
2022/03/15 08:15:48;;;;;;;16.15;8.85;;;12.00;31.60;;;;;;5121002;28;20089;-67
2022/03/15 08:18:14;;;;;;;15.25;10.00;;;12.00;31.60;;;;;;5121019;28;20034;-66
2022/03/15 08:20:41;;;;;;;18.50;8.88;;;12.00;31.50;;;;;;5120942;28;20065;-67
2022/03/15 08:23:07;;;;;;;16.48;9.88;;;12.10;31.50;;;;;;5120863;28;20030;-67
2022/03/15 08:25:33;;;;;;;15.90;8.98;;;12.00;31.30;;;;;;5120893;28;20027;-68
2022/03/15 08:28:00;;;;;;;15.55;9.27;;;12.00;31.40;;;;;;5120792;28;20098;-67
2022/03/15 08:30:27;;;;;;;17.23;9.30;;;12.10;31.40;;;;;;5120799;28;20052;-66
2022/03/15 08:32:53;;;;;;;15.00;9.25;;;12.10;31.50;;;;;;5120794;28;20012;-68
2022/03/15 08:35:19;;;;;;;16.60;9.82;;;12.10;31.40;;;;;;5120759;28;20046;-66
2022/03/15 08:37:50;;;;;;;16.95;10.20;;;12.20;31.40;;;;;;5120779;28;20043;-67
2022/03/15 08:40:16;;;;;;;15.55;9.27;;;12.20;31.40;;;;;;5120763;28;20043;-66
2022/03/15 08:42:42;;;;;;;19.02;9.25;;;12.20;31.40;;;;;;5120653;28;20027;-66
2022/03/15 08:45:10;;;;;;;17.65;9.90;;;12.20;31.30;;;;;;5120524;28;20393;-67
2022/03/15 08:47:37;;;;;;;15.05;9.35;;;12.20;31.30;;;;;;5120629;28;20217;-66
2022/03/15 08:50:05;;;;;;;16.00;9.80;;;12.20;31.30;;;;;;5120641;28;20335;-67
2022/03/15 08:52:31;;;;;;;20.23;10.45;;;12.30;31.40;;;;;;5120658;28;20090;-66
2022/03/15 08:54:57;;;;;;;16.10;9.35;;;12.30;31.40;;;;;;5122173;28;20031;-68
2022/03/15 08:57:23;;;;;;;15.18;9.40;;;12.30;31.40;;;;;;5125107;28;20227;-67
2022/03/15 08:59:49;;;;;;;14.13;8.80;;;12.30;31.50;;;;;;5123479;28;20027;-67
2022/03/15 09:02:17;;;;;;;12.32;9.18;;;12.30;31.50;;;;;;5123453;28;20020;-68
2022/03/15 09:04:45;;;;;;;16.08;9.68;;;12.30;31.40;;;;;;5124579;28;20304;-68
2022/03/15 09:07:11;;;;;;;14.70;9.13;;;12.30;31.60;;;;;;5124664;28;20028;-66
2022/03/15 09:09:37;;;;;;;17.13;9.73;;;12.30;31.50;;;;;;5124582;28;20201;-65
2022/03/15 09:12:03;;;;;;;15.48;8.90;;;12.40;31.50;;;;;;5124491;28;20026;-67
2022/03/15 09:14:30;;;;;;;15.50;9.20;;;12.40;31.50;;;;;;5124455;28;20019;-66
2022/03/15 09:16:55;;;;;;;15.98;9.20;;;12.40;31.60;;;;;;5124503;28;20015;-67
2022/03/15 09:19:21;;;;;;;16.63;9.80;;;12.40;31.70;;;;;;5124352;28;20455;-66
2022/03/15 09:21:47;;;;;;;12.23;8.43;;;12.40;31.70;;;;;;5124304;28;20023;-67
2022/03/15 09:24:13;;;;;;;14.10;9.05;;;12.40;31.70;;;;;;5124265;28;20315;-67
2022/03/15 09:26:42;;;;;;;19.75;9.77;;;12.50;31.70;;;;;;5124229;28;20018;-66
2022/03/15 09:29:12;;;;;;;12.82;8.70;;;12.50;31.70;;;;;;5124222;28;20255;-66
2022/03/15 09:31:38;;;;;;;14.75;9.25;;;12.50;31.60;;;;;;5124226;28;20027;-67
2022/03/15 09:34:04;;;;;;;14.57;9.43;;;12.50;31.70;;;;;;5124199;28;20054;-67
2022/03/15 09:36:29;;;;;;;15.85;9.10;;;12.50;31.60;;;;;;5124099;28;20028;-67
2022/03/15 09:38:56;;;;;;;15.07;9.13;;;12.50;31.80;;;;;;5124111;28;20043;-66
2022/03/15 09:41:25;;;;;;;14.52;8.82;;;12.50;31.80;;;;;;5122705;28;20029;-66
2022/03/15 09:43:54;;;;;;;13.52;8.88;;;12.50;31.70;;;;;;5123781;28;20075;-66
2022/03/15 09:46:21;;;;;;;12.90;8.93;;;12.50;31.80;;;;;;5123959;28;20091;-65
2022/03/15 09:48:52;;;;;;;17.05;8.63;;;12.50;31.80;;;;;;5123854;28;20032;-66
2022/03/15 09:51:18;;;;;;;14.50;8.55;;;12.50;31.70;;;;;;5123874;28;20252;-66
2022/03/15 09:53:46;;;;;;;12.75;8.63;;;12.50;31.70;;;;;;5123817;28;20034;-66
2022/03/15 09:56:15;;;;;;;14.35;8.80;;;12.50;31.90;;;;;;5123764;28;20099;-68
2022/03/15 09:58:41;;;;;;;14.15;8.52;;;12.50;31.80;;;;;;5123732;28;20019;-66
2022/03/15 10:01:12;;;;;;;15.82;9.43;;;12.60;31.90;;;;;;5123691;28;20031;-66
2022/03/15 10:03:38;;;;;;;12.73;8.98;;;12.60;31.90;;;;;;5123535;28;20050;-67
2022/03/15 10:06:03;;;;;;;13.57;8.85;;;12.50;31.90;;;;;;5122783;28;20016;-67
2022/03/15 10:08:29;;;;;;;12.75;8.30;;;12.60;31.80;;;;;;5123471;28;20027;-66
2022/03/15 10:10:55;;;;;;;15.88;9.52;;;12.60;31.90;;;;;;5123452;28;20144;-67
2022/03/15 10:13:21;;;;;;;15.18;9.70;;;12.60;31.70;;;;;;5123483;28;20343;-67
2022/03/15 10:15:51;;;;;;;14.18;8.52;;;12.60;32.00;;;;;;5123381;28;20042;-67
2022/03/15 10:18:18;;;;;;;14.40;9.05;;;12.60;32.60;;;;;;5123249;28;20032;-67
2022/03/15 10:20:44;;;;;;;14.25;8.43;;;12.60;32.00;;;;;;5123307;28;20054;-68
2022/03/15 10:23:10;;;;;;;13.63;8.60;;;12.60;32.00;;;;;;5123149;28;20476;-66
2022/03/15 10:25:40;;;;;;;14.52;8.75;;;12.60;32.00;;;;;;5123151;27;20019;-67
2022/03/15 10:28:08;;;;;;;16.23;9.68;;;12.60;32.10;;;;;;5123100;28;20028;-66
2022/03/15 10:30:35;;;;;;;13.07;7.80;;;12.70;32.10;;;;;;5123072;28;20016;-67
2022/03/15 10:33:02;;;;;;;14.90;9.30;;;12.70;32.20;;;;;;5122986;28;20024;-66
2022/03/15 10:35:30;;;;;;;12.40;7.78;;;12.70;32.20;;;;;;5123226;28;20016;-67
2022/03/15 10:37:58;;;;;;;12.18;8.52;;;12.60;32.20;;;;;;5122916;28;20023;-67
2022/03/15 10:40:38;;;;;;;15.88;9.13;;;12.60;32.20;;;;;;5122904;28;20019;-68
2022/03/15 10:43:18;;;;;;;13.10;8.35;;;12.60;32.10;;;;;;5122536;28;20015;-67
2022/03/15 10:45:56;;;;;;;12.65;8.32;;;12.70;32.10;;;;;;5122787;28;20011;-67
2022/03/15 10:48:30;;;;;;;13.27;8.80;;;12.70;32.20;;;;;;5122763;27;20086;-66
2022/03/15 10:51:11;;;;;;;15.52;9.15;;;12.70;32.20;;;;;;5122740;28;20592;-66
2022/03/15 10:53:41;;;;;;;13.73;8.63;;;12.70;32.20;;;;;;5122508;28;20287;-67
2022/03/15 10:56:23;;;;;;;13.57;8.75;;;12.70;32.20;;;;;;5122511;28;20054;-66
2022/03/15 10:58:51;;;;;;;12.15;8.38;;;12.70;32.20;;;;;;5122485;28;20019;-66
2022/03/15 11:01:18;;;;;;;13.45;8.65;;;12.70;32.20;;;;;;5121201;28;20030;-67
2022/03/15 11:03:59;;;;;;;16.42;9.07;;;12.70;32.20;;;;;;5122336;27;20028;-67
2022/03/15 11:06:45;;;;;;;13.63;8.30;;;12.70;32.20;;;;;;5122424;28;20019;-66
2022/03/15 11:09:28;;;;;;;13.32;8.18;;;12.70;32.20;;;;;;5122204;28;20037;-66
2022/03/15 11:12:06;;;;;;;13.63;9.18;;;12.80;32.30;;;;;;5122275;28;20034;-66
2022/03/15 11:14:47;;;;;;;12.97;8.73;;;12.80;32.20;;;;;;5122185;28;20034;-66
2022/03/15 11:17:16;;;;;;;14.40;9.35;;;12.80;32.30;;;;;;5122093;28;20061;-67
2022/03/15 11:19:49;;;;;;;14.70;9.05;;;12.80;32.30;;;;;;5121181;28;20054;-66
2022/03/15 11:22:17;;;;;;;17.80;9.68;;;12.80;32.20;;;;;;5122040;28;20260;-68
2022/03/15 11:25:06;;;;;;;11.15;8.05;;;12.80;32.20;;;;;;5121882;28;20016;-67
2022/03/15 11:27:43;;;;;;;15.15;8.85;;;12.80;32.10;;;;;;5121975;28;20042;-67
2022/03/15 11:30:14;;;;;;;15.52;8.93;;;12.90;32.20;;;;;;5121912;28;20030;-67
2022/03/15 11:32:40;;;;;;;12.32;8.25;;;12.90;32.20;;;;;;5121828;28;20012;-66
2022/03/15 11:35:08;;;;;;;14.80;9.05;;;12.90;32.30;;;;;;5121699;28;20537;-66
2022/03/15 11:37:35;;;;;;;12.45;8.35;;;12.90;32.30;;;;;;5122028;28;20336;-67
2022/03/15 11:40:06;;;;;;;13.65;8.38;;;12.90;32.30;;;;;;5121710;28;20034;-66
2022/03/15 11:42:34;;;;;;;14.63;8.77;;;12.90;32.30;;;;;;5121579;28;20035;-67
2022/03/15 11:45:17;;;;;;;12.65;8.75;;;12.90;32.20;;;;;;5120033;28;20058;-66
2022/03/15 11:48:10;;;;;;;14.65;9.10;;;12.90;32.20;;;;;;5121573;28;20020;-67
2022/03/15 11:50:47;;;;;;;13.70;7.82;;;12.90;32.20;;;;;;5121373;28;20026;-65
2022/03/15 11:53:50;;;;;;;13.15;8.35;;;12.90;32.20;;;;;;5121413;28;20211;-67
2022/03/15 11:56:52;;;;;;;11.57;8.35;;;12.90;32.20;;;;;;5121211;28;20094;-66
2022/03/15 11:59:18;;;;;;;13.50;8.73;;;13.00;32.30;;;;;;5121354;28;20022;-67
2022/03/15 12:01:49;;;;;;;12.57;8.50;;;13.00;32.20;;;;;;5121290;28;20075;-66
2022/03/15 12:04:16;;;;;;;14.43;8.43;;;13.00;32.30;;;;;;5121197;28;20032;-66
2022/03/15 12:06:54;;;;;;;14.93;8.73;;;13.00;32.30;;;;;;5121168;28;20023;-67
2022/03/15 12:09:22;;;;;;;16.25;8.77;;;13.00;32.20;;;;;;5121168;28;20031;-67
2022/03/15 12:12:00;;;;;;;13.85;8.15;;;13.00;32.20;;;;;;5121078;28;20012;-67
2022/03/15 12:14:38;;;;;;;13.15;8.32;;;13.00;32.20;;;;;;5121043;28;20031;-68
2022/03/15 12:17:04;;;;;;;12.93;7.95;;;13.10;32.30;;;;;;5121044;28;20052;-67
2022/03/15 12:19:36;;;;;;;13.93;8.82;;;13.10;32.90;;;;;;5121041;28;20032;-67
2022/03/15 12:22:08;;;;;;;13.82;8.50;;;13.10;32.30;;;;;;5120972;28;20023;-66
2022/03/15 12:24:35;;;;;;;12.73;8.75;;;13.10;32.30;;;;;;5120857;28;20038;-66
2022/03/15 12:27:09;;;;;;;14.35;9.32;;;13.10;32.40;;;;;;5120842;28;20047;-66
2022/03/15 12:29:39;;;;;;;17.95;9.25;;;13.00;32.40;;;;;;5120475;28;20145;-67
2022/03/15 12:32:18;;;;;;;14.15;7.88;;;13.10;33.10;;;;;;5120765;28;20023;-66
2022/03/15 12:34:49;;;;;;;14.65;8.10;;;13.00;32.40;;;;;;5120841;28;20311;-66
2022/03/15 12:37:15;;;;;;;14.02;8.00;;;13.10;32.50;;;;;;5120796;28;20054;-66
2022/03/15 12:39:52;;;;;;;14.52;8.32;;;13.10;32.60;;;;;;5120673;28;20024;-66
2022/03/15 12:42:21;;;;;;;14.88;8.52;;;13.10;32.60;;;;;;5120700;28;20046;-68
2022/03/15 12:44:48;;;;;;;;;;;13.10;32.70;;;;;;5119621;28;20043;-67